createdAt,value
2018-07-27T00:00:05.142Z,35.95
2018-07-27T00:02:35.640Z,35.83
2018-07-27T00:05:03.981Z,36.17
2018-07-27T00:07:32.551Z,35.94
2018-07-27T00:10:01.090Z,36.69
2018-07-27T00:12:30.539Z,37.01
2018-07-27T00:14:58.329Z,36.52
2018-07-27T00:17:27.311Z,36.26
2018-07-27T00:19:55.496Z,36.86
2018-07-27T00:22:23.189Z,36.33
2018-07-27T00:24:51.598Z,37.38
2018-07-27T00:27:19.597Z,37.29
2018-07-27T00:29:49.178Z,37.36
2018-07-27T00:32:18.209Z,36.68
2018-07-27T00:34:47.295Z,36.99
2018-07-27T00:37:18.340Z,37.58
2018-07-27T00:39:46.037Z,37.58
2018-07-27T00:42:14.432Z,37.06
2018-07-27T00:44:43.429Z,37.64
2018-07-27T00:47:13.636Z,37.55
2018-07-27T00:49:43.131Z,37.58
2018-07-27T00:52:10.833Z,37.70
2018-07-27T00:54:38.510Z,37.62
2018-07-27T00:57:06.373Z,37.87
2018-07-27T00:59:34.389Z,37.44
2018-07-27T01:02:03.366Z,37.28
2018-07-27T01:04:31.761Z,37.94
2018-07-27T01:06:59.453Z,37.48
2018-07-27T01:09:28.397Z,38.08
2018-07-27T01:11:56.380Z,38.23
2018-07-27T01:14:24.777Z,37.82
2018-07-27T01:16:52.924Z,37.88
2018-07-27T01:19:20.600Z,38.37
2018-07-27T01:21:48.275Z,37.78
2018-07-27T01:24:15.968Z,37.95
2018-07-27T01:26:46.741Z,38.56
2018-07-27T01:29:14.425Z,38.19
2018-07-27T01:31:42.127Z,38.13
2018-07-27T01:34:09.897Z,38.26
2018-07-27T01:36:37.934Z,39.16
2018-07-27T01:39:05.648Z,39.04
2018-07-27T01:41:33.334Z,38.94
2018-07-27T01:44:01.077Z,39.32
2018-07-27T01:46:29.072Z,38.71
2018-07-27T01:48:56.729Z,38.89
2018-07-27T01:51:24.397Z,39.44
2018-07-27T01:53:52.377Z,38.85
2018-07-27T01:56:20.063Z,39.39
2018-07-27T01:58:47.774Z,39.07
2018-07-27T02:01:15.497Z,39.46
2018-07-27T02:03:43.599Z,39.67
2018-07-27T02:06:11.297Z,39.33
2018-07-27T02:08:39.824Z,39.23
2018-07-27T02:11:08.413Z,40.03
2018-07-27T02:13:41.269Z,39.99
2018-07-27T02:16:10.313Z,39.32
2018-07-27T02:18:38.754Z,39.98
2018-07-27T02:21:06.433Z,40.32
2018-07-27T02:23:34.700Z,39.93
2018-07-27T02:26:02.449Z,39.58
2018-07-27T02:28:31.081Z,40.17
2018-07-27T02:30:59.943Z,40.10
2018-07-27T02:33:27.714Z,40.36
2018-07-27T02:35:55.440Z,40.04
2018-07-27T02:38:23.771Z,40.62
2018-07-27T02:40:51.873Z,40.26
2018-07-27T02:43:19.615Z,40.31
2018-07-27T02:45:47.288Z,41.30
2018-07-27T02:48:14.981Z,41.31
2018-07-27T02:50:42.970Z,40.79
2018-07-27T02:53:10.701Z,41.51
2018-07-27T02:55:38.425Z,40.87
2018-07-27T02:58:06.141Z,41.01
2018-07-27T03:00:34.148Z,40.92
2018-07-27T03:03:03.493Z,41.23
2018-07-27T03:05:31.165Z,41.32
2018-07-27T03:07:58.864Z,41.57
2018-07-27T03:10:26.814Z,42.00
2018-07-27T03:12:54.522Z,42.21
2018-07-27T03:15:22.245Z,42.18
2018-07-27T03:17:49.910Z,41.77
2018-07-27T03:20:17.881Z,42.02
2018-07-27T03:22:45.617Z,42.61
2018-07-27T03:25:14.137Z,42.40
2018-07-27T03:27:41.869Z,42.29
2018-07-27T03:30:09.837Z,42.69
2018-07-27T03:32:37.524Z,42.61
2018-07-27T03:35:05.240Z,41.93
2018-07-27T03:37:32.912Z,42.77
2018-07-27T03:40:00.890Z,41.92
2018-07-27T03:42:28.605Z,42.77
2018-07-27T03:44:56.905Z,42.92
2018-07-27T03:47:25.861Z,43.00
2018-07-27T03:49:53.568Z,43.06
2018-07-27T03:52:22.401Z,42.96
2018-07-27T03:54:51.157Z,42.15
2018-07-27T03:57:18.853Z,42.75
2018-07-27T03:59:46.546Z,42.62
2018-07-27T04:02:14.272Z,43.04
2018-07-27T04:04:42.442Z,42.78
2018-07-27T04:07:10.182Z,43.40
2018-07-27T04:09:37.913Z,43.54
2018-07-27T04:12:05.625Z,42.92
2018-07-27T04:14:33.597Z,42.75
2018-07-27T04:17:01.345Z,43.29
2018-07-27T04:19:29.545Z,43.33
2018-07-27T04:21:58.332Z,43.07
2018-07-27T04:24:26.026Z,43.04
2018-07-27T04:26:53.721Z,43.04
2018-07-27T04:29:21.708Z,43.01
2018-07-27T04:31:49.730Z,42.95
2018-07-27T04:34:17.452Z,42.20
2018-07-27T04:36:45.141Z,42.31
2018-07-27T04:39:13.460Z,42.23
2018-07-27T04:41:41.181Z,41.89
2018-07-27T04:44:09.953Z,41.87
2018-07-27T04:46:37.978Z,42.32
2018-07-27T04:49:06.402Z,41.40
2018-07-27T04:51:34.093Z,41.41
2018-07-27T04:54:01.778Z,41.43
2018-07-27T04:56:29.487Z,41.75
2018-07-27T04:58:57.594Z,41.34
2018-07-27T05:01:25.286Z,40.83
2018-07-27T05:03:52.973Z,41.12
2018-07-27T05:06:21.906Z,41.01
2018-07-27T05:08:54.475Z,41.07
2018-07-27T05:11:22.381Z,40.87
2018-07-27T05:13:50.458Z,40.79
2018-07-27T05:16:18.129Z,39.96
2018-07-27T05:18:45.805Z,40.05
2018-07-27T05:21:13.778Z,40.29
2018-07-27T05:23:41.482Z,40.35
2018-07-27T05:26:10.358Z,40.05
2018-07-27T05:28:38.451Z,40.06
2018-07-27T05:31:06.117Z,39.68
2018-07-27T05:33:33.809Z,39.77
2018-07-27T05:36:01.810Z,39.82
2018-07-27T05:38:29.500Z,38.64
2018-07-27T05:40:57.201Z,38.69
2018-07-27T05:43:25.318Z,38.60
2018-07-27T05:45:53.012Z,38.51
2018-07-27T05:48:20.708Z,38.00
2018-07-27T05:50:48.725Z,38.78
2018-07-27T05:53:16.494Z,38.54
2018-07-27T05:55:44.235Z,37.79
2018-07-27T05:58:12.200Z,37.81
2018-07-27T06:00:39.876Z,37.96
2018-07-27T06:03:07.576Z,38.23
2018-07-27T06:05:35.652Z,37.30
2018-07-27T06:08:03.328Z,37.57
2018-07-27T06:10:31.015Z,37.64
2018-07-27T06:12:58.989Z,37.12
2018-07-27T06:15:26.650Z,36.91
2018-07-27T06:17:54.361Z,37.01
2018-07-27T06:20:22.369Z,37.39
2018-07-27T06:22:50.077Z,36.70
2018-07-27T06:25:18.368Z,36.35
2018-07-27T06:27:46.357Z,36.94
2018-07-27T06:30:14.108Z,36.67
2018-07-27T06:32:41.791Z,36.34
2018-07-27T06:35:09.818Z,36.44
2018-07-27T06:37:37.559Z,36.40
2018-07-27T06:40:05.272Z,35.35
2018-07-27T06:42:33.492Z,36.18
2018-07-27T06:45:01.184Z,35.61
2018-07-27T06:47:29.605Z,35.55
2018-07-27T06:49:57.571Z,35.94
2018-07-27T06:52:25.336Z,35.70
2018-07-27T06:54:53.198Z,34.84
2018-07-27T06:57:21.163Z,35.17
2018-07-27T06:59:48.845Z,35.41
2018-07-27T07:02:16.548Z,35.08
2018-07-27T07:04:44.543Z,35.06
2018-07-27T07:07:12.287Z,34.83
2018-07-27T07:09:41.018Z,34.18
2018-07-27T07:12:08.992Z,34.45
2018-07-27T07:14:36.738Z,33.74
2018-07-27T07:17:05.042Z,34.39
2018-07-27T07:19:33.052Z,34.46
2018-07-27T07:22:00.775Z,34.21
2018-07-27T07:24:28.452Z,34.22
2018-07-27T07:26:56.465Z,34.18
2018-07-27T07:29:24.732Z,33.26
2018-07-27T07:31:52.428Z,34.00
2018-07-27T07:34:20.428Z,33.88
2018-07-27T07:36:48.137Z,33.18
2018-07-27T07:39:15.862Z,32.79
2018-07-27T07:41:43.920Z,32.49
2018-07-27T07:44:11.637Z,33.51
2018-07-27T07:46:40.537Z,33.13
2018-07-27T07:49:09.308Z,32.48
2018-07-27T07:51:38.826Z,33.21
2018-07-27T07:54:06.540Z,32.43
2018-07-27T07:56:34.995Z,32.99
2018-07-27T07:59:03.258Z,33.00
2018-07-27T08:01:31.576Z,32.53
2018-07-27T08:03:59.525Z,32.89
2018-07-27T08:06:28.013Z,32.81
2018-07-27T08:08:57.752Z,32.68
2018-07-27T08:11:27.133Z,32.46
2018-07-27T08:13:54.828Z,32.58
2018-07-27T08:16:23.823Z,31.64
2018-07-27T08:18:51.788Z,31.96
2018-07-27T08:21:20.836Z,31.45
2018-07-27T08:23:49.717Z,32.15
2018-07-27T08:26:17.732Z,31.80
2018-07-27T08:28:45.790Z,31.22
2018-07-27T08:31:13.492Z,31.12
2018-07-27T08:33:41.480Z,31.57
2018-07-27T08:36:09.181Z,31.71
2018-07-27T08:38:37.945Z,30.89
2018-07-27T08:41:06.000Z,31.32
2018-07-27T08:43:33.665Z,31.31
2018-07-27T08:46:01.356Z,30.38
2018-07-27T08:48:29.422Z,30.38
2018-07-27T08:50:58.389Z,30.17
2018-07-27T08:53:27.017Z,30.03
2018-07-27T08:55:54.976Z,30.87
2018-07-27T08:58:22.640Z,30.46
2018-07-27T09:00:56.748Z,29.76
2018-07-27T09:03:24.767Z,29.60
2018-07-27T09:05:52.563Z,30.07
2018-07-27T09:08:20.970Z,29.91
2018-07-27T09:10:49.497Z,29.60
2018-07-27T09:13:18.493Z,29.62
2018-07-27T09:15:47.495Z,28.69
2018-07-27T09:18:16.344Z,29.10
2018-07-27T09:20:44.097Z,28.96
2018-07-27T09:23:11.934Z,28.37
2018-07-27T09:25:39.688Z,28.27
2018-07-27T09:28:08.308Z,28.35
2018-07-27T09:30:36.699Z,27.97
2018-07-27T09:33:06.076Z,28.88
2018-07-27T09:35:35.201Z,27.84
2018-07-27T09:38:03.471Z,27.68
2018-07-27T09:40:31.352Z,28.03
2018-07-27T09:43:00.867Z,27.92
2018-07-27T09:45:30.349Z,28.45
2018-07-27T09:47:58.021Z,27.71
2018-07-27T09:50:25.697Z,26.97
2018-07-27T09:52:54.501Z,27.37
2018-07-27T09:55:25.816Z,27.77
2018-07-27T09:57:53.611Z,26.09
2018-07-27T10:00:26.745Z,25.70
2018-07-27T10:02:55.536Z,25.52
2018-07-27T10:05:23.278Z,25.61
2018-07-27T10:07:52.994Z,25.58
2018-07-27T10:10:20.680Z,24.28
2018-07-27T10:12:48.684Z,23.95
2018-07-27T10:15:19.215Z,24.77
2018-07-27T10:17:47.723Z,23.14
2018-07-27T10:20:16.017Z,23.34
2018-07-27T10:22:43.975Z,23.92
2018-07-27T10:25:12.476Z,22.91
2018-07-27T10:27:40.984Z,22.19
2018-07-27T10:30:09.081Z,23.07
2018-07-27T10:32:38.565Z,23.00
2018-07-27T10:35:08.425Z,22.64
2018-07-27T10:37:37.160Z,22.40
2018-07-27T10:40:04.909Z,21.38
2018-07-27T10:42:33.368Z,21.52
2018-07-27T10:45:03.356Z,20.55
2018-07-27T10:47:31.064Z,21.61
2018-07-27T10:49:58.737Z,21.11
2018-07-27T10:52:27.385Z,20.26
2018-07-27T10:54:55.092Z,20.29
2018-07-27T10:57:23.366Z,20.77
2018-07-27T10:59:51.583Z,20.55
2018-07-27T11:02:20.282Z,19.95
2018-07-27T11:04:48.209Z,19.37
2018-07-27T11:07:17.341Z,20.08
2018-07-27T11:09:45.675Z,19.36
2018-07-27T11:12:18.281Z,19.55
2018-07-27T11:14:46.340Z,19.75
2018-07-27T11:17:15.004Z,19.63
2018-07-27T11:19:42.772Z,19.37
2018-07-27T11:22:11.541Z,19.55
2018-07-27T11:24:40.796Z,19.31
2018-07-27T11:27:08.650Z,18.57
2018-07-27T11:29:36.640Z,19.01
2018-07-27T11:32:04.341Z,18.87
2018-07-27T11:34:33.666Z,18.54
2018-07-27T11:37:01.661Z,17.76
2018-07-27T11:39:30.545Z,18.10
2018-07-27T11:41:58.250Z,17.27
2018-07-27T11:44:26.200Z,17.49
2018-07-27T11:46:56.817Z,17.43
2018-07-27T11:49:24.544Z,17.21
2018-07-27T11:51:53.676Z,17.38
2018-07-27T11:54:22.539Z,17.31
2018-07-27T11:56:51.812Z,17.41
2018-07-27T11:59:20.424Z,16.64
2018-07-27T12:01:48.111Z,17.32
2018-07-27T12:04:15.903Z,17.13
2018-07-27T12:06:44.491Z,16.79
2018-07-27T12:09:12.841Z,16.65
2018-07-27T12:11:41.227Z,16.85
2018-07-27T12:14:09.440Z,16.31
2018-07-27T12:16:37.029Z,16.47
2018-07-27T12:19:04.742Z,16.28
2018-07-27T12:21:32.827Z,16.53
2018-07-27T12:24:00.838Z,16.58
2018-07-27T12:26:28.558Z,16.45
2018-07-27T12:28:56.581Z,15.84
2018-07-27T12:31:24.345Z,15.27
2018-07-27T12:33:52.402Z,15.59
2018-07-27T12:36:20.398Z,15.97
2018-07-27T12:38:48.212Z,15.79
2018-07-27T12:41:15.909Z,15.70
2018-07-27T12:43:43.872Z,15.76
2018-07-27T12:46:11.706Z,15.22
2018-07-27T12:48:40.004Z,15.29
2018-07-27T12:51:07.965Z,15.43
2018-07-27T12:53:35.644Z,15.42
2018-07-27T12:56:03.331Z,15.37
2018-07-27T12:58:31.282Z,15.21
2018-07-27T13:01:00.044Z,15.27
2018-07-27T13:03:28.941Z,15.22
2018-07-27T13:06:00.442Z,15.24
2018-07-27T13:08:28.378Z,14.77
2018-07-27T13:10:56.145Z,14.73
2018-07-27T13:13:24.536Z,14.93
2018-07-27T13:15:52.228Z,14.62
2018-07-27T13:18:19.942Z,15.16
2018-07-27T13:20:50.668Z,14.49
2018-07-27T13:23:18.782Z,14.61
2018-07-27T13:25:46.713Z,14.39
2018-07-27T13:28:14.861Z,14.39
2018-07-27T13:30:42.558Z,14.68
2018-07-27T13:33:12.722Z,14.46
2018-07-27T13:38:09.195Z,14.54
2018-07-27T13:40:37.981Z,14.40
2018-07-27T13:43:06.142Z,14.52
2018-07-27T13:45:33.881Z,14.54
2018-07-27T13:48:02.576Z,14.41
2018-07-27T13:50:30.742Z,14.23
2018-07-27T13:52:58.484Z,14.10
2018-07-27T13:55:30.547Z,14.13
2018-07-27T13:57:58.635Z,14.16
2018-07-27T14:00:27.278Z,14.01
2018-07-27T14:02:58.402Z,14.06
2018-07-27T14:05:27.839Z,14.06
2018-07-27T14:07:56.249Z,14.11
2018-07-27T14:10:25.705Z,14.03
2018-07-27T14:12:56.781Z,13.85
2018-07-27T14:15:32.205Z,13.74
2018-07-27T14:17:59.961Z,14.06
2018-07-27T14:20:31.578Z,13.78
2018-07-27T14:23:02.336Z,14.07
2018-07-27T14:25:30.072Z,14.05
2018-07-27T14:27:58.223Z,13.54
2018-07-27T14:30:26.010Z,13.58
2018-07-27T14:32:53.725Z,13.63
2018-07-27T14:35:21.784Z,13.75
2018-07-27T14:37:49.490Z,13.67
2018-07-27T14:40:17.180Z,13.47
2018-07-27T14:42:47.096Z,13.45
2018-07-27T14:45:14.846Z,13.61
2018-07-27T14:47:42.855Z,13.35
2018-07-27T14:50:11.929Z,13.50
2018-07-27T14:52:39.736Z,13.63
2018-07-27T14:55:07.435Z,13.38
2018-07-27T14:57:35.652Z,13.35
2018-07-27T15:00:06.568Z,13.36
2018-07-27T15:02:34.260Z,13.24
2018-07-27T15:05:02.465Z,13.11
2018-07-27T15:07:32.085Z,13.37
2018-07-27T15:10:00.477Z,13.26
2018-07-27T15:12:29.616Z,13.17
2018-07-27T15:14:57.309Z,13.16
2018-07-27T15:17:26.509Z,13.05
2018-07-27T15:19:54.691Z,12.97
2018-07-27T15:22:22.383Z,13.08
2018-07-27T15:24:50.282Z,12.72
2018-07-27T15:27:19.200Z,12.70
2018-07-27T15:29:47.492Z,12.79
2018-07-27T15:32:16.436Z,12.69
2018-07-27T15:34:46.727Z,13.07
2018-07-27T15:37:15.568Z,13.13
2018-07-27T15:39:44.482Z,13.23
2018-07-27T15:42:12.213Z,12.91
2018-07-27T15:44:40.989Z,13.10
2018-07-27T15:47:10.320Z,13.26
2018-07-27T15:49:38.536Z,13.35
2018-07-27T15:52:07.408Z,13.32
2018-07-27T15:54:36.155Z,13.12
2018-07-27T15:57:04.345Z,13.51
2018-07-27T15:59:33.598Z,13.57
2018-07-27T16:02:01.708Z,13.83
2018-07-27T16:04:29.405Z,13.97
2018-07-27T16:07:01.450Z,14.06
2018-07-27T16:09:30.613Z,14.18
2018-07-27T16:11:59.271Z,14.18
2018-07-27T16:14:29.427Z,14.43
2018-07-27T16:16:58.361Z,13.87
2018-07-27T16:19:28.522Z,13.93
2018-07-27T16:21:57.531Z,14.70
2018-07-27T16:24:26.494Z,14.57
2018-07-27T16:26:54.237Z,14.66
2018-07-27T16:29:22.005Z,15.12
2018-07-27T16:31:50.029Z,14.71
2018-07-27T16:34:18.590Z,15.40
2018-07-27T16:36:48.948Z,15.75
2018-07-27T16:39:18.632Z,15.91
2018-07-27T16:41:46.661Z,16.18
2018-07-27T16:44:15.188Z,17.62
2018-07-27T16:46:43.672Z,18.65
2018-07-27T16:49:11.370Z,18.95
2018-07-27T16:51:39.109Z,20.14
2018-07-27T16:54:07.168Z,20.62
2018-07-27T16:56:34.887Z,20.25
2018-07-27T16:59:02.589Z,20.00
2018-07-27T17:01:30.560Z,21.25
2018-07-27T17:03:59.002Z,20.84
2018-07-27T17:06:27.677Z,21.74
2018-07-27T17:08:56.749Z,22.06
2018-07-27T17:11:24.670Z,20.95
2018-07-27T17:13:53.063Z,21.04
2018-07-27T17:16:22.333Z,21.21
2018-07-27T17:18:50.905Z,22.06
2018-07-27T17:21:18.725Z,22.41
2018-07-27T17:23:47.901Z,21.70
2018-07-27T17:26:16.237Z,21.72
2018-07-27T17:28:47.479Z,21.86
2018-07-27T17:31:15.672Z,22.62
2018-07-27T17:33:43.346Z,22.90
2018-07-27T17:36:11.727Z,22.38
2018-07-27T17:38:39.833Z,22.18
2018-07-27T17:41:08.176Z,22.85
2018-07-27T17:43:36.653Z,22.25
2018-07-27T17:46:04.718Z,23.18
2018-07-27T17:48:33.589Z,23.06
2018-07-27T17:51:02.485Z,23.13
2018-07-27T17:53:30.564Z,22.51
2018-07-27T17:56:00.239Z,22.50
2018-07-27T17:58:28.661Z,23.21
2018-07-27T18:00:56.797Z,22.57
2018-07-27T18:03:30.699Z,23.41
2018-07-27T18:05:58.410Z,23.53
2018-07-27T18:08:26.518Z,23.30
2018-07-27T18:10:54.218Z,22.90
2018-07-27T18:13:21.957Z,23.16
2018-07-27T18:15:50.131Z,23.78
2018-07-27T18:18:19.096Z,23.36
2018-07-27T18:20:46.916Z,23.43
2018-07-27T18:23:16.388Z,23.96
2018-07-27T18:25:44.110Z,23.30
2018-07-27T18:28:12.516Z,23.28
2018-07-27T18:30:40.641Z,23.99
2018-07-27T18:33:08.556Z,24.34
2018-07-27T18:35:38.499Z,24.10
2018-07-27T18:38:07.639Z,23.70
2018-07-27T18:40:39.379Z,24.56
2018-07-27T18:43:08.482Z,23.86
2018-07-27T18:45:39.888Z,23.84
2018-07-27T18:48:08.595Z,24.70
2018-07-27T18:50:36.263Z,24.82
2018-07-27T18:53:04.241Z,23.97
2018-07-27T18:55:31.941Z,24.92
2018-07-27T18:57:59.663Z,24.15
2018-07-27T19:00:28.478Z,25.02
2018-07-27T19:02:57.668Z,24.98
2018-07-27T19:05:25.402Z,24.42
2018-07-27T19:07:54.419Z,24.80
2018-07-27T19:10:22.972Z,24.99
2018-07-27T19:12:50.717Z,24.70
2018-07-27T19:15:19.397Z,24.81
2018-07-27T19:17:47.210Z,25.06
2018-07-27T19:20:14.931Z,24.97
2018-07-27T19:22:43.045Z,24.96
2018-07-27T19:25:11.291Z,25.05
2018-07-27T19:27:39.641Z,25.21
2018-07-27T19:30:08.702Z,25.61
2018-07-27T19:32:37.596Z,25.82
2018-07-27T19:35:06.982Z,26.32
2018-07-27T19:37:34.956Z,26.81
2018-07-27T19:40:02.655Z,26.97
2018-07-27T19:42:32.934Z,27.03
2018-07-27T19:45:02.098Z,27.17
2018-07-27T19:47:29.821Z,26.46
2018-07-27T19:49:57.521Z,27.41
2018-07-27T19:52:26.466Z,26.79
2018-07-27T19:54:54.322Z,26.62
2018-07-27T19:57:22.799Z,27.02
2018-07-27T19:59:50.884Z,27.16
2018-07-27T20:02:19.214Z,27.82
2018-07-27T20:04:48.071Z,28.04
2018-07-27T20:07:17.035Z,27.51
2018-07-27T20:09:44.716Z,27.58
2018-07-27T20:12:12.385Z,28.16
2018-07-27T20:14:40.357Z,27.72
2018-07-27T20:17:08.713Z,27.83
2018-07-27T20:19:38.524Z,28.08
2018-07-27T20:22:06.629Z,28.69
2018-07-27T20:24:39.467Z,28.85
2018-07-27T20:27:07.223Z,28.96
2018-07-27T20:29:34.966Z,28.32
2018-07-27T20:32:02.709Z,29.26
2018-07-27T20:34:31.305Z,28.89
2018-07-27T20:37:09.526Z,29.51
2018-07-27T20:39:37.220Z,29.59
2018-07-27T20:42:05.250Z,28.83
2018-07-27T20:44:32.968Z,28.79
2018-07-27T20:47:01.269Z,29.36
2018-07-27T20:49:29.213Z,29.87
2018-07-27T20:52:01.217Z,29.88
2018-07-27T20:54:28.937Z,29.52
2018-07-27T20:56:57.274Z,29.93
2018-07-27T20:59:25.004Z,30.22
2018-07-27T21:01:53.345Z,29.32
2018-07-27T21:04:21.307Z,30.16
2018-07-27T21:06:49.020Z,29.73
2018-07-27T21:09:17.416Z,30.37
2018-07-27T21:11:47.021Z,29.63
2018-07-27T21:14:14.704Z,29.80
2018-07-27T21:16:42.364Z,30.29
2018-07-27T21:19:10.833Z,29.81
2018-07-27T21:21:38.523Z,30.09
2018-07-27T21:24:06.248Z,30.35
2018-07-27T21:26:35.643Z,29.87
2018-07-27T21:29:03.366Z,30.34
2018-07-27T21:31:31.092Z,30.06
2018-07-27T21:33:59.076Z,30.20
2018-07-27T21:36:27.771Z,30.09
2018-07-27T21:38:55.520Z,30.30
2018-07-27T21:41:23.552Z,30.92
2018-07-27T21:43:58.557Z,30.79
2018-07-27T21:46:26.534Z,30.89
2018-07-27T21:48:56.042Z,30.67
2018-07-27T21:54:01.391Z,30.35
2018-07-27T21:56:29.948Z,31.07
2018-07-27T21:59:00.848Z,30.65
2018-07-27T22:01:30.443Z,31.25
2018-07-27T22:03:58.124Z,31.11
2018-07-27T22:06:25.845Z,31.37
2018-07-27T22:08:55.325Z,31.55
2018-07-27T22:11:24.285Z,31.31
2018-07-27T22:13:53.493Z,30.87
2018-07-27T22:16:22.485Z,31.09
2018-07-27T22:18:51.729Z,31.38
2018-07-27T22:21:21.865Z,31.72
2018-07-27T22:23:54.602Z,31.75
2018-07-27T22:26:23.108Z,31.42
2018-07-27T22:28:51.420Z,31.43
2018-07-27T22:31:20.259Z,32.19
2018-07-27T22:33:48.633Z,32.17
2018-07-27T22:36:17.902Z,32.40
2018-07-27T22:38:47.398Z,32.10
2018-07-27T22:41:16.607Z,31.84
2018-07-27T22:43:46.625Z,32.45
2018-07-27T22:46:14.732Z,31.93
2018-07-27T22:48:43.270Z,32.24
2018-07-27T22:51:11.755Z,32.28
2018-07-27T22:53:40.360Z,32.20
2018-07-27T22:56:12.755Z,32.59
2018-07-27T22:58:41.394Z,32.24
2018-07-27T23:01:09.421Z,32.41
2018-07-27T23:03:37.270Z,33.14
2018-07-27T23:06:06.888Z,32.68
2018-07-27T23:08:37.277Z,33.21
2018-07-27T23:11:12.589Z,32.68
2018-07-27T23:13:41.726Z,33.02
2018-07-27T23:16:11.800Z,33.39
2018-07-27T23:18:42.779Z,33.22
2018-07-27T23:21:13.553Z,33.09
2018-07-27T23:23:42.179Z,33.28
2018-07-27T23:26:10.580Z,33.27
2018-07-27T23:28:42.122Z,33.17
2018-07-27T23:31:12.485Z,33.13
2018-07-27T23:33:43.076Z,33.53
2018-07-27T23:36:11.758Z,33.01
2018-07-27T23:38:40.672Z,33.09
2018-07-27T23:41:08.610Z,33.72
2018-07-27T23:43:36.589Z,32.90
2018-07-27T23:46:05.384Z,33.78
2018-07-27T23:48:36.436Z,33.82
2018-07-27T23:51:05.508Z,33.66
2018-07-27T23:53:33.688Z,33.47
2018-07-27T23:56:03.314Z,34.26
2018-07-27T23:58:33.556Z,33.63
